Time;durP1;ratioP1;P1;durP2;ratioP2;P2;SDS_P1;SDS_P2;PMS_P1;PMS_P2;Temp;Humidity;BMP_temperature;BMP_pressure;BME280_temperature;BME280_humidity;BME280_pressure;Samples;Min_cycle;Max_cycle;Signal;HPM_P1;HPM_P2
2023/07/27 00:02:56;;;;;;;1.45;1.10;;;21.30;99.90;;;;;;10061548;28;20045;-72
2023/07/27 00:07:47;;;;;;;1.88;1.20;;;21.20;99.90;;;;;;10055713;28;20036;-73
2023/07/27 00:12:37;;;;;;;3.20;1.38;;;21.20;99.90;;;;;;10058040;28;20040;-73
2023/07/27 00:17:28;;;;;;;3.03;1.30;;;21.10;99.90;;;;;;10061415;28;20091;-73
2023/07/27 00:22:18;;;;;;;2.03;1.45;;;21.10;99.90;;;;;;10063050;28;20075;-72
2023/07/27 00:27:09;;;;;;;2.90;1.30;;;21.00;99.90;;;;;;10064265;28;20041;-73
2023/07/27 00:31:59;;;;;;;2.25;1.40;;;21.00;99.90;;;;;;10060701;28;20061;-71
2023/07/27 00:36:50;;;;;;;2.35;1.58;;;21.00;99.90;;;;;;10060074;28;20052;-71
2023/07/27 00:41:42;;;;;;;2.03;1.27;;;20.90;99.90;;;;;;10060386;28;20029;-71
2023/07/27 00:46:35;;;;;;;2.42;1.30;;;20.90;99.90;;;;;;10075861;28;20506;-71
2023/07/27 00:51:26;;;;;;;1.52;1.33;;;21.00;99.90;;;;;;10062883;28;20539;-71
2023/07/27 00:56:17;;;;;;;2.38;1.60;;;20.90;99.90;;;;;;10059972;28;20080;-71
2023/07/27 01:01:08;;;;;;;3.85;1.30;;;20.90;99.90;;;;;;10061521;28;20033;-71
2023/07/27 01:05:59;;;;;;;2.17;1.27;;;20.80;99.90;;;;;;10057656;28;20053;-71
2023/07/27 01:11:00;;;;;;;1.80;0.85;;;20.70;99.90;;;;;;10070776;28;20044;-72
2023/07/27 01:15:56;;;;;;;1.50;1.10;;;20.80;99.90;;;;;;10057997;28;20041;-72
2023/07/27 01:21:13;;;;;;;2.00;1.30;;;20.70;99.90;;;;;;10060275;28;20025;-71
2023/07/27 01:26:23;;;;;;;3.38;1.75;;;20.70;99.90;;;;;;10057080;28;20416;-72
2023/07/27 01:31:23;;;;;;;2.25;1.25;;;20.60;99.90;;;;;;10062565;28;20037;-71
2023/07/27 01:36:19;;;;;;;2.95;1.50;;;20.60;99.90;;;;;;10059367;28;20084;-72
2023/07/27 01:41:11;;;;;;;2.00;1.67;;;20.60;99.90;;;;;;10058230;28;20065;-72
2023/07/27 01:46:04;;;;;;;2.20;1.05;;;20.60;99.90;;;;;;10073563;28;20045;-71
2023/07/27 01:50:56;;;;;;;2.80;1.67;;;20.50;99.90;;;;;;10057671;28;20056;-71
2023/07/27 01:55:48;;;;;;;2.58;1.70;;;20.50;99.90;;;;;;10057849;28;20395;-71
2023/07/27 02:00:40;;;;;;;1.33;1.17;;;20.50;99.90;;;;;;10062096;28;20468;-72
2023/07/27 02:05:30;;;;;;;1.60;1.40;;;20.30;99.90;;;;;;10056523;28;20080;-72
2023/07/27 02:10:23;;;;;;;3.67;1.60;;;20.30;99.90;;;;;;10057916;28;20083;-71
2023/07/27 02:15:22;;;;;;;1.42;1.15;;;20.40;99.90;;;;;;10056915;28;20120;-72
2023/07/27 02:20:16;;;;;;;2.45;1.60;;;20.30;99.90;;;;;;10056843;28;20025;-71
2023/07/27 02:25:07;;;;;;;2.23;1.57;;;20.30;99.90;;;;;;10053338;28;20030;-72
2023/07/27 02:30:00;;;;;;;2.88;1.38;;;20.40;99.90;;;;;;10082300;28;20274;-72
2023/07/27 02:34:50;;;;;;;1.63;1.48;;;20.30;99.90;;;;;;10069907;28;20486;-72
2023/07/27 02:39:41;;;;;;;2.22;1.55;;;20.20;99.90;;;;;;10069954;28;20494;-72
2023/07/27 02:44:31;;;;;;;2.42;1.38;;;20.30;99.90;;;;;;10070027;28;20048;-71
2023/07/27 02:49:22;;;;;;;2.20;1.33;;;20.20;99.90;;;;;;10069982;28;20025;-71
2023/07/27 02:54:13;;;;;;;1.98;1.33;;;20.00;99.90;;;;;;10070838;28;20326;-71
2023/07/27 02:59:03;;;;;;;1.90;1.20;;;20.10;99.90;;;;;;10069939;28;20026;-71
2023/07/27 03:03:54;;;;;;;2.58;1.38;;;20.00;99.90;;;;;;10069117;28;20033;-71
2023/07/27 03:08:44;;;;;;;1.65;1.42;;;20.00;99.90;;;;;;10071016;28;20521;-71
2023/07/27 03:13:35;;;;;;;3.83;1.42;;;20.00;99.90;;;;;;10067493;28;20044;-71
2023/07/27 03:18:28;;;;;;;1.40;1.25;;;19.90;99.90;;;;;;10069514;28;20033;-74
2023/07/27 03:23:18;;;;;;;2.67;1.60;;;20.00;99.90;;;;;;10072065;28;20102;-71
2023/07/27 03:28:09;;;;;;;2.67;1.65;;;19.90;99.90;;;;;;10069094;28;20107;-71
2023/07/27 03:33:00;;;;;;;2.90;1.55;;;19.90;99.90;;;;;;10068776;28;20129;-72
2023/07/27 03:37:51;;;;;;;2.45;1.67;;;19.80;99.90;;;;;;10069985;28;20036;-71
2023/07/27 03:42:41;;;;;;;3.60;1.83;;;19.70;99.90;;;;;;10059384;28;20013;-72
2023/07/27 03:47:32;;;;;;;3.97;1.88;;;19.80;99.90;;;;;;10061231;28;20037;-71
2023/07/27 03:52:23;;;;;;;2.70;1.20;;;19.70;99.90;;;;;;10062038;28;20524;-71
2023/07/27 03:57:13;;;;;;;1.88;1.40;;;19.70;99.90;;;;;;10061366;28;20484;-72
2023/07/27 04:02:04;;;;;;;2.13;1.30;;;19.70;99.90;;;;;;10061573;28;20030;-71
2023/07/27 04:06:55;;;;;;;2.38;1.50;;;19.70;99.90;;;;;;10061613;28;20033;-71
2023/07/27 04:11:45;;;;;;;2.72;1.65;;;19.70;99.90;;;;;;10073375;28;20162;-71
2023/07/27 04:16:36;;;;;;;2.85;1.50;;;19.70;99.90;;;;;;10064062;28;20032;-71
2023/07/27 04:21:27;;;;;;;2.33;1.23;;;19.70;99.90;;;;;;10065508;28;20503;-73
2023/07/27 04:26:17;;;;;;;3.50;1.38;;;19.60;99.90;;;;;;10061781;28;20546;-72
2023/07/27 04:31:08;;;;;;;4.05;2.33;;;19.60;99.90;;;;;;10076520;28;20025;-73
2023/07/27 04:36:02;;;;;;;1.92;1.40;;;19.60;99.90;;;;;;10075822;28;20128;-72
2023/07/27 04:40:53;;;;;;;1.63;1.23;;;19.60;99.90;;;;;;10060499;28;20503;-75
2023/07/27 04:45:45;;;;;;;2.45;1.63;;;19.60;99.90;;;;;;10060625;28;20038;-73
2023/07/27 04:50:36;;;;;;;3.10;1.25;;;19.60;99.90;;;;;;10059478;28;20555;-72
2023/07/27 04:55:26;;;;;;;2.15;1.08;;;19.40;99.90;;;;;;10060420;28;20128;-72
2023/07/27 05:00:17;;;;;;;2.17;1.50;;;19.50;99.90;;;;;;10061138;28;20029;-72
2023/07/27 05:05:08;;;;;;;2.13;1.23;;;19.40;99.90;;;;;;10059648;28;20037;-73
2023/07/27 05:09:59;;;;;;;3.05;1.33;;;19.50;99.90;;;;;;10069486;28;20018;-72
2023/07/27 05:14:50;;;;;;;1.30;1.20;;;19.50;99.90;;;;;;10058262;28;20064;-73
2023/07/27 05:19:41;;;;;;;2.00;1.65;;;19.50;99.90;;;;;;10057872;28;20036;-72
2023/07/27 05:24:32;;;;;;;2.20;1.63;;;19.50;99.90;;;;;;10074753;28;20370;-74
2023/07/27 05:29:22;;;;;;;2.95;1.50;;;19.60;99.90;;;;;;10058745;28;20025;-71
2023/07/27 05:34:13;;;;;;;3.95;1.52;;;19.50;99.90;;;;;;10058409;28;20041;-72
2023/07/27 05:39:04;;;;;;;1.75;1.27;;;19.40;99.90;;;;;;10058391;28;20032;-72
2023/07/27 05:43:54;;;;;;;3.80;1.70;;;19.30;99.90;;;;;;10058242;28;20075;-71
2023/07/27 05:48:45;;;;;;;2.50;1.45;;;19.30;99.90;;;;;;10058041;28;20108;-72
2023/07/27 05:53:35;;;;;;;3.00;1.88;;;19.40;99.90;;;;;;10060910;28;20041;-71
2023/07/27 05:58:26;;;;;;;3.65;1.73;;;19.40;99.90;;;;;;10057717;28;20484;-71
2023/07/27 06:03:18;;;;;;;2.90;1.40;;;19.40;99.90;;;;;;10055913;28;20041;-72
2023/07/27 06:08:09;;;;;;;2.90;1.83;;;19.40;99.90;;;;;;10054561;28;20028;-71
2023/07/27 06:13:00;;;;;;;3.50;1.67;;;19.40;99.90;;;;;;10061732;28;20022;-71
2023/07/27 06:17:50;;;;;;;3.65;2.47;;;19.30;99.90;;;;;;10056063;28;20037;-71
2023/07/27 06:22:41;;;;;;;2.63;1.73;;;19.30;99.90;;;;;;10055577;28;20437;-71
2023/07/27 06:27:31;;;;;;;4.50;1.80;;;19.30;99.90;;;;;;10057495;28;20049;-71
2023/07/27 06:32:22;;;;;;;5.75;1.55;;;19.30;99.90;;;;;;10055573;28;20025;-72
2023/07/27 06:37:13;;;;;;;3.65;2.20;;;19.30;99.90;;;;;;10054215;28;20061;-71
2023/07/27 06:42:03;;;;;;;4.28;2.13;;;19.30;99.90;;;;;;10058168;28;20030;-73
2023/07/27 06:46:54;;;;;;;3.05;1.65;;;19.30;99.90;;;;;;10056036;28;20025;-71
2023/07/27 06:51:45;;;;;;;3.63;2.28;;;19.30;99.90;;;;;;10055036;28;20068;-71
2023/07/27 06:56:36;;;;;;;2.97;1.75;;;19.20;99.90;;;;;;10055644;28;20479;-72
2023/07/27 07:01:26;;;;;;;1.35;1.10;;;19.30;99.90;;;;;;10053691;28;20025;-70
2023/07/27 07:06:17;;;;;;;2.50;1.77;;;19.20;99.90;;;;;;10055774;28;20048;-71
2023/07/27 07:11:08;;;;;;;5.47;1.85;;;19.30;99.90;;;;;;10062503;28;20033;-71
2023/07/27 07:15:59;;;;;;;2.30;1.50;;;19.40;99.90;;;;;;10060174;28;20044;-74
2023/07/27 07:20:49;;;;;;;2.67;2.10;;;19.30;99.90;;;;;;10062642;28;20079;-74
2023/07/27 07:25:40;;;;;;;3.30;2.55;;;19.30;99.90;;;;;;10063837;28;20585;-72
2023/07/27 07:30:30;;;;;;;3.25;1.60;;;19.40;99.90;;;;;;10056163;28;20172;-74
2023/07/27 07:35:21;;;;;;;2.20;1.33;;;19.40;99.90;;;;;;10067575;28;20037;-73
2023/07/27 07:40:12;;;;;;;2.92;1.70;;;19.50;99.90;;;;;;10068420;28;20407;-70
2023/07/27 07:45:03;;;;;;;4.55;2.08;;;19.60;99.90;;;;;;10062100;28;20179;-75
2023/07/27 07:49:53;;;;;;;2.10;1.35;;;19.60;99.90;;;;;;10062638;28;20036;-75
2023/07/27 07:54:44;;;;;;;4.13;1.83;;;19.60;99.90;;;;;;10076379;28;20045;-73
2023/07/27 07:59:36;;;;;;;1.98;1.30;;;19.60;99.90;;;;;;10062066;28;20045;-71
2023/07/27 08:04:27;;;;;;;1.85;1.30;;;19.70;99.90;;;;;;10060283;28;20021;-70
2023/07/27 08:09:18;;;;;;;4.70;1.75;;;19.70;99.90;;;;;;10068262;28;20029;-70
2023/07/27 08:14:09;;;;;;;4.43;1.73;;;19.70;99.90;;;;;;10059598;28;20033;-70
2023/07/27 08:19:00;;;;;;;3.72;1.60;;;19.70;99.90;;;;;;10059884;28;20436;-71
2023/07/27 08:23:52;;;;;;;3.53;1.85;;;19.80;99.90;;;;;;10060207;28;20052;-69
2023/07/27 08:28:42;;;;;;;4.32;1.80;;;19.80;99.90;;;;;;10059800;28;20210;-70
2023/07/27 08:33:34;;;;;;;3.60;1.60;;;19.70;99.90;;;;;;10064996;28;20373;-71
2023/07/27 08:38:24;;;;;;;4.35;1.92;;;19.80;99.90;;;;;;10059348;28;20030;-70
2023/07/27 08:43:15;;;;;;;3.40;1.80;;;19.80;99.90;;;;;;10063407;28;20486;-72
2023/07/27 08:48:07;;;;;;;2.08;1.33;;;19.90;99.90;;;;;;10061910;28;20322;-70
2023/07/27 08:52:57;;;;;;;2.65;1.77;;;19.90;99.90;;;;;;10059317;28;20049;-70
2023/07/27 08:57:48;;;;;;;4.05;1.80;;;19.90;99.90;;;;;;10058549;28;20502;-70
2023/07/27 09:02:39;;;;;;;2.28;1.58;;;20.00;99.90;;;;;;10061595;28;20469;-70
2023/07/27 09:07:29;;;;;;;4.22;2.10;;;20.00;99.90;;;;;;10054509;28;20034;-70
2023/07/27 09:12:24;;;;;;;2.33;1.70;;;20.00;99.90;;;;;;10056277;28;20057;-70
2023/07/27 09:17:14;;;;;;;2.63;1.50;;;20.10;99.90;;;;;;10058066;28;20064;-74
2023/07/27 09:22:05;;;;;;;4.45;1.80;;;20.10;99.90;;;;;;10060973;28;20377;-68
2023/07/27 09:26:56;;;;;;;4.13;1.42;;;20.20;99.90;;;;;;10058228;28;20406;-69
2023/07/27 09:31:51;;;;;;;5.18;2.05;;;20.30;99.90;;;;;;10061627;28;20440;-71
2023/07/27 09:36:43;;;;;;;2.78;1.65;;;20.40;99.90;;;;;;10056725;28;20045;-69
2023/07/27 09:41:50;;;;;;;2.80;1.52;;;20.50;99.90;;;;;;10056649;28;20049;-71
2023/07/27 09:46:42;;;;;;;5.97;2.17;;;20.60;99.90;;;;;;10057266;28;20057;-70
2023/07/27 09:51:34;;;;;;;4.05;1.90;;;20.80;99.90;;;;;;10055135;28;20041;-69
2023/07/27 09:56:25;;;;;;;3.10;1.63;;;20.90;99.90;;;;;;10056653;28;20033;-68
2023/07/27 10:01:17;;;;;;;1.98;1.77;;;21.00;99.90;;;;;;10058620;28;20116;-69
2023/07/27 10:06:08;;;;;;;2.50;1.38;;;21.10;99.90;;;;;;10054924;28;20044;-71
2023/07/27 10:11:00;;;;;;;3.85;2.35;;;21.20;99.90;;;;;;10049996;28;20117;-69
2023/07/27 10:15:56;;;;;;;3.85;1.70;;;21.20;99.90;;;;;;10057312;28;20033;-68
2023/07/27 10:20:46;;;;;;;3.22;2.15;;;21.20;99.90;;;;;;10055841;28;20037;-70
2023/07/27 10:25:55;;;;;;;2.25;1.48;;;21.20;99.90;;;;;;10056385;28;20033;-69
2023/07/27 10:30:46;;;;;;;2.53;1.70;;;21.30;99.90;;;;;;10051028;28;20037;-71
2023/07/27 10:36:03;;;;;;;1.83;1.20;;;21.30;99.90;;;;;;10055977;28;20395;-68
2023/07/27 10:40:54;;;;;;;2.03;1.35;;;21.30;99.90;;;;;;10055703;28;20048;-71
2023/07/27 10:45:53;;;;;;;1.90;1.40;;;21.40;99.90;;;;;;10054993;28;20041;-71
2023/07/27 10:50:44;;;;;;;2.28;1.60;;;21.40;99.90;;;;;;10060980;28;20049;-73
2023/07/27 10:55:38;;;;;;;3.40;1.48;;;21.40;99.90;;;;;;10065800;28;20419;-71
2023/07/27 11:00:35;;;;;;;3.70;2.22;;;21.40;99.90;;;;;;10065283;28;20027;-73
2023/07/27 11:05:25;;;;;;;4.05;2.08;;;21.50;99.90;;;;;;10070072;28;20044;-73
2023/07/27 11:10:16;;;;;;;4.47;1.80;;;21.50;99.90;;;;;;10064256;28;20480;-70
2023/07/27 11:15:14;;;;;;;2.95;1.42;;;21.60;99.90;;;;;;10060484;28;20044;-69
2023/07/27 11:20:06;;;;;;;3.40;1.20;;;21.70;99.90;;;;;;10062505;28;20052;-72
2023/07/27 11:24:57;;;;;;;3.10;1.40;;;21.70;99.90;;;;;;10062473;28;20218;-74
2023/07/27 11:29:49;;;;;;;3.17;1.50;;;21.80;99.90;;;;;;10063194;28;20036;-72
2023/07/27 11:34:40;;;;;;;4.22;1.20;;;21.90;99.90;;;;;;10070806;28;20479;-72
2023/07/27 11:39:31;;;;;;;3.50;1.70;;;22.00;99.90;;;;;;10064285;28;20112;-70
2023/07/27 11:44:22;;;;;;;9.40;3.05;;;22.10;99.90;;;;;;10059274;28;20132;-71
2023/07/27 11:49:18;;;;;;;2.45;1.25;;;22.10;99.90;;;;;;10061081;28;20034;-72
2023/07/27 11:54:09;;;;;;;2.58;1.35;;;22.20;99.90;;;;;;10058501;28;20527;-70
2023/07/27 11:58:59;;;;;;;3.53;1.92;;;22.20;99.90;;;;;;10059023;28;20025;-73
2023/07/27 12:03:50;;;;;;;2.88;1.48;;;22.20;99.90;;;;;;10062455;28;20570;-72
2023/07/27 12:08:41;;;;;;;2.17;1.10;;;22.20;99.90;;;;;;10066857;28;20029;-72
2023/07/27 12:13:35;;;;;;;1.90;1.48;;;22.20;99.90;;;;;;10066315;28;20544;-71
2023/07/27 12:18:30;;;;;;;2.58;1.40;;;22.40;99.90;;;;;;10061878;28;20056;-72
2023/07/27 12:23:23;;;;;;;2.27;1.20;;;22.50;99.90;;;;;;10064983;28;20043;-72
2023/07/27 12:28:14;;;;;;;3.38;1.33;;;22.60;99.90;;;;;;10060356;28;20041;-72
2023/07/27 12:33:06;;;;;;;1.55;1.08;;;22.60;99.90;;;;;;10059695;28;20063;-75
2023/07/27 12:38:00;;;;;;;2.35;1.42;;;22.60;99.90;;;;;;10058519;28;20527;-71
2023/07/27 12:42:51;;;;;;;1.80;1.20;;;22.70;99.90;;;;;;10059399;28;20022;-71
2023/07/27 12:47:43;;;;;;;2.00;1.35;;;22.90;99.90;;;;;;10059154;28;20108;-72
2023/07/27 12:52:34;;;;;;;2.60;2.10;;;23.10;99.90;;;;;;10058364;28;20045;-71
2023/07/27 12:57:24;;;;;;;2.72;1.35;;;23.20;99.90;;;;;;10058839;28;20037;-71
2023/07/27 13:02:15;;;;;;;1.73;1.20;;;23.30;99.90;;;;;;10061519;28;20101;-72
2023/07/27 13:07:07;;;;;;;2.17;1.13;;;23.30;99.90;;;;;;10059031;28;20104;-71
2023/07/27 13:11:57;;;;;;;3.60;1.30;;;23.30;99.90;;;;;;10056867;28;20030;-74
2023/07/27 13:16:48;;;;;;;1.60;1.02;;;23.40;99.90;;;;;;10059309;28;20046;-72
2023/07/27 13:21:39;;;;;;;4.20;2.08;;;23.50;99.90;;;;;;10056745;28;20053;-73
2023/07/27 13:26:30;;;;;;;4.00;1.55;;;23.50;99.90;;;;;;10059195;28;20041;-72
2023/07/27 13:31:22;;;;;;;1.67;1.17;;;23.60;99.90;;;;;;10056992;28;20018;-74
2023/07/27 13:36:13;;;;;;;2.30;1.40;;;23.60;99.90;;;;;;10058544;28;20515;-73
2023/07/27 13:41:04;;;;;;;2.58;1.48;;;23.70;99.90;;;;;;10060582;28;20047;-72
2023/07/27 13:45:54;;;;;;;2.63;1.40;;;23.70;99.90;;;;;;10060197;28;20040;-69
2023/07/27 13:50:52;;;;;;;1.38;1.27;;;23.70;99.90;;;;;;10056768;28;20049;-72
2023/07/27 13:55:44;;;;;;;1.98;1.20;;;23.70;99.90;;;;;;10057543;28;20353;-73
2023/07/27 14:00:35;;;;;;;2.75;1.25;;;23.80;99.90;;;;;;10067943;28;20085;-71
2023/07/27 14:05:26;;;;;;;2.72;1.10;;;23.80;99.90;;;;;;10061914;28;20120;-72
2023/07/27 14:10:17;;;;;;;2.65;1.10;;;24.00;99.90;;;;;;10066296;28;20211;-72
2023/07/27 14:15:08;;;;;;;2.30;1.42;;;24.10;99.90;;;;;;10065019;28;20184;-71
2023/07/27 14:19:59;;;;;;;1.40;1.00;;;24.10;99.90;;;;;;10056420;28;20034;-71
2023/07/27 14:24:51;;;;;;;3.72;1.27;;;24.10;99.90;;;;;;10058977;28;20424;-71
2023/07/27 14:29:41;;;;;;;1.88;1.40;;;24.00;99.90;;;;;;10055946;28;20034;-71
2023/07/27 14:34:32;;;;;;;2.15;1.33;;;24.00;99.90;;;;;;10055191;28;20057;-72
2023/07/27 14:39:23;;;;;;;2.05;1.45;;;24.00;99.90;;;;;;10060310;28;20581;-70
2023/07/27 14:44:13;;;;;;;3.67;1.58;;;24.00;99.90;;;;;;10055906;28;20030;-70
2023/07/27 14:49:04;;;;;;;2.47;1.83;;;24.20;99.90;;;;;;10055833;28;20026;-71
2023/07/27 14:53:54;;;;;;;3.15;1.50;;;24.20;99.90;;;;;;10053575;28;20423;-71
2023/07/27 14:58:45;;;;;;;4.20;1.80;;;24.30;99.90;;;;;;10055101;28;20472;-74
2023/07/27 15:03:36;;;;;;;2.67;1.40;;;24.30;99.90;;;;;;10058417;28;20034;-73
2023/07/27 15:08:26;;;;;;;2.00;1.30;;;24.40;99.90;;;;;;10059832;28;20021;-70
2023/07/27 15:13:17;;;;;;;2.22;1.52;;;24.40;99.90;;;;;;10077448;28;20026;-73
2023/07/27 15:18:08;;;;;;;2.80;1.27;;;24.40;99.90;;;;;;10055101;28;20033;-73
2023/07/27 15:22:59;;;;;;;2.88;1.70;;;24.30;99.90;;;;;;10056240;28;20087;-76
2023/07/27 15:27:49;;;;;;;3.92;1.80;;;24.30;99.90;;;;;;10054969;28;20033;-73
2023/07/27 15:32:40;;;;;;;1.35;1.23;;;24.30;99.90;;;;;;10055630;28;20030;-72
2023/07/27 15:37:31;;;;;;;3.55;2.45;;;24.30;99.90;;;;;;10059112;28;20044;-71
2023/07/27 15:42:21;;;;;;;3.65;1.70;;;24.40;99.90;;;;;;10061947;28;20025;-71
2023/07/27 15:47:12;;;;;;;2.47;1.45;;;24.50;99.90;;;;;;10061859;28;20033;-73
2023/07/27 15:52:03;;;;;;;2.50;1.60;;;24.60;99.90;;;;;;10060811;28;20761;-69
2023/07/27 15:56:54;;;;;;;2.63;1.95;;;24.50;99.90;;;;;;10060781;28;20072;-72
2023/07/27 16:01:44;;;;;;;3.08;1.80;;;24.60;99.90;;;;;;10061114;28;20030;-70
2023/07/27 16:06:35;;;;;;;3.42;1.60;;;24.60;99.90;;;;;;10060443;28;20087;-71
2023/07/27 16:11:25;;;;;;;1.95;1.05;;;24.60;99.90;;;;;;10069705;28;20233;-72
2023/07/27 16:16:16;;;;;;;2.33;1.52;;;24.60;99.90;;;;;;10059014;28;20037;-72
2023/07/27 16:21:07;;;;;;;3.90;2.20;;;24.60;99.90;;;;;;10059708;28;20361;-71
2023/07/27 16:26:04;;;;;;;2.55;1.63;;;24.50;99.90;;;;;;10060524;28;20030;-74
2023/07/27 16:30:55;;;;;;;2.30;1.63;;;24.50;99.90;;;;;;10060210;28;20148;-73
2023/07/27 16:35:46;;;;;;;3.35;1.67;;;24.50;99.90;;;;;;10080720;28;20144;-68
2023/07/27 16:40:36;;;;;;;3.72;1.88;;;24.50;99.90;;;;;;10059494;28;20033;-68
2023/07/27 16:45:27;;;;;;;3.88;2.05;;;24.50;99.90;;;;;;10065595;28;20029;-70
2023/07/27 16:50:18;;;;;;;2.90;1.70;;;24.40;99.90;;;;;;10058582;28;20033;-74
2023/07/27 16:55:09;;;;;;;2.50;1.55;;;24.50;99.90;;;;;;10059155;28;20522;-74
2023/07/27 16:59:59;;;;;;;3.85;1.65;;;24.40;99.90;;;;;;10064837;28;20012;-73
2023/07/27 17:04:52;;;;;;;2.80;1.40;;;24.30;99.90;;;;;;10061903;28;20038;-75
2023/07/27 17:09:42;;;;;;;2.97;1.48;;;24.30;99.90;;;;;;10058642;28;20597;-81
2023/07/27 17:14:33;;;;;;;2.80;1.60;;;24.30;99.90;;;;;;10052323;28;20045;-79
2023/07/27 17:19:24;;;;;;;4.22;1.63;;;24.30;99.90;;;;;;10057632;28;20021;-77
2023/07/27 17:24:14;;;;;;;3.08;2.10;;;24.30;99.90;;;;;;10058195;28;20356;-77
2023/07/27 17:29:05;;;;;;;2.08;1.70;;;24.30;99.90;;;;;;10058998;28;20029;-79
2023/07/27 17:33:56;;;;;;;1.95;1.27;;;24.20;99.90;;;;;;10060168;28;20550;-81
2023/07/27 17:38:46;;;;;;;2.17;1.55;;;24.30;99.90;;;;;;10059934;28;20064;-75
2023/07/27 17:43:37;;;;;;;2.10;1.60;;;24.30;99.90;;;;;;10062553;28;20130;-75
2023/07/27 17:48:28;;;;;;;1.83;1.38;;;24.20;99.90;;;;;;10057369;28;20021;-75
2023/07/27 17:53:18;;;;;;;3.05;1.63;;;24.20;99.90;;;;;;10057825;28;20046;-75
2023/07/27 17:58:09;;;;;;;2.22;1.45;;;24.20;99.90;;;;;;10062904;28;20059;-74
2023/07/27 18:03:00;;;;;;;2.67;1.48;;;24.20;99.90;;;;;;10057927;28;20038;-74
2023/07/27 18:07:51;;;;;;;2.28;1.50;;;24.10;99.90;;;;;;10056160;28;20451;-73
2023/07/27 18:12:41;;;;;;;4.22;2.20;;;24.20;99.90;;;;;;10056264;28;20480;-74
2023/07/27 18:17:32;;;;;;;2.40;2.10;;;24.20;99.90;;;;;;10055993;28;20148;-77
2023/07/27 18:22:23;;;;;;;3.53;1.80;;;24.20;99.90;;;;;;10057190;28;20025;-74
2023/07/27 18:27:14;;;;;;;2.90;1.65;;;24.20;99.90;;;;;;10053538;28;20076;-75
2023/07/27 18:32:04;;;;;;;5.28;2.55;;;24.20;99.90;;;;;;10056040;28;20032;-78
2023/07/27 18:36:57;;;;;;;4.07;2.15;;;24.20;99.90;;;;;;10057203;28;20546;-75
2023/07/27 18:41:48;;;;;;;3.35;2.30;;;24.20;99.90;;;;;;10071566;28;20033;-76
2023/07/27 18:46:38;;;;;;;5.70;2.55;;;24.20;99.90;;;;;;10073208;28;20038;-74
2023/07/27 18:51:29;;;;;;;3.95;2.35;;;24.10;99.90;;;;;;10053504;28;20049;-77
2023/07/27 18:56:20;;;;;;;4.60;2.42;;;24.10;99.90;;;;;;10055893;28;20045;-75
2023/07/27 19:01:11;;;;;;;6.57;2.92;;;24.10;99.90;;;;;;10054850;28;20079;-76
2023/07/27 19:06:02;;;;;;;3.97;2.10;;;24.10;99.90;;;;;;10055319;28;20032;-76
2023/07/27 19:10:53;;;;;;;5.90;1.98;;;24.10;99.90;;;;;;10057453;28;20025;-77
2023/07/27 19:15:50;;;;;;;3.45;2.30;;;24.10;99.90;;;;;;10077196;28;20049;-77
2023/07/27 19:20:40;;;;;;;3.05;2.00;;;24.10;99.90;;;;;;10061608;28;20037;-79
2023/07/27 19:25:40;;;;;;;4.72;2.50;;;24.10;99.90;;;;;;10062898;28;20037;-76
2023/07/27 19:30:30;;;;;;;3.88;2.38;;;24.10;99.90;;;;;;10062632;28;20029;-77
2023/07/27 19:35:21;;;;;;;4.55;2.40;;;24.10;99.90;;;;;;10064587;28;20037;-75
2023/07/27 19:40:12;;;;;;;5.82;2.33;;;24.10;99.90;;;;;;10072580;28;20093;-75
2023/07/27 19:45:05;;;;;;;6.65;3.15;;;24.10;99.90;;;;;;10070904;28;20056;-75
2023/07/27 19:49:56;;;;;;;4.65;3.03;;;24.10;99.90;;;;;;10063153;28;20037;-79
2023/07/27 19:54:47;;;;;;;6.68;3.13;;;24.10;99.90;;;;;;10061173;28;20057;-79
2023/07/27 19:59:37;;;;;;;2.97;2.38;;;24.00;99.90;;;;;;10066108;28;20032;-74
2023/07/27 20:04:28;;;;;;;4.80;2.92;;;24.10;99.90;;;;;;10063511;28;20037;-77
2023/07/27 20:09:21;;;;;;;3.70;2.58;;;24.10;99.90;;;;;;10062758;28;20033;-72
2023/07/27 20:14:14;;;;;;;5.00;2.95;;;24.00;99.90;;;;;;10061144;28;20048;-76
2023/07/27 20:19:04;;;;;;;6.40;4.68;;;24.00;99.90;;;;;;10060336;28;20088;-73
2023/07/27 20:23:55;;;;;;;5.15;3.08;;;24.10;99.90;;;;;;10067447;28;20041;-73
2023/07/27 20:28:46;;;;;;;6.88;2.90;;;24.00;99.90;;;;;;10062337;28;20029;-77
2023/07/27 20:33:37;;;;;;;5.47;2.97;;;24.00;99.90;;;;;;10063674;28;20039;-75
2023/07/27 20:38:27;;;;;;;4.57;3.00;;;24.00;99.90;;;;;;10070527;28;20043;-73
2023/07/27 20:43:18;;;;;;;5.65;3.92;;;24.10;99.90;;;;;;10061159;28;20277;-73
2023/07/27 20:48:09;;;;;;;6.88;3.38;;;24.00;99.90;;;;;;10060627;28;20021;-73
2023/07/27 20:53:00;;;;;;;6.75;3.13;;;24.00;99.90;;;;;;10059461;28;20499;-74
2023/07/27 20:57:51;;;;;;;4.38;3.20;;;23.90;99.90;;;;;;10064527;28;20028;-75
2023/07/27 21:02:42;;;;;;;5.72;3.80;;;23.90;99.90;;;;;;10061536;28;20391;-74
2023/07/27 21:07:32;;;;;;;4.63;2.85;;;23.90;99.90;;;;;;10058804;28;20035;-75
2023/07/27 21:12:23;;;;;;;6.15;3.10;;;23.80;99.90;;;;;;10053715;28;20112;-76
2023/07/27 21:17:13;;;;;;;4.53;2.53;;;23.70;99.90;;;;;;10066935;28;20037;-74
2023/07/27 21:22:05;;;;;;;4.18;2.38;;;23.70;99.90;;;;;;10059427;28;20058;-75
2023/07/27 21:26:55;;;;;;;3.45;2.55;;;23.60;99.90;;;;;;10066933;28;20025;-74
2023/07/27 21:31:46;;;;;;;3.70;2.33;;;23.70;99.90;;;;;;10055932;28;20040;-76
2023/07/27 21:36:37;;;;;;;7.20;3.72;;;23.70;99.90;;;;;;10055920;28;20574;-78
2023/07/27 21:41:27;;;;;;;5.70;3.38;;;23.70;99.90;;;;;;10055077;28;20371;-76
2023/07/27 21:46:18;;;;;;;5.18;2.83;;;23.60;99.90;;;;;;10072429;28;20108;-75
2023/07/27 21:51:09;;;;;;;6.00;2.97;;;23.70;99.90;;;;;;10056667;28;20083;-73
2023/07/27 21:55:59;;;;;;;6.07;3.35;;;23.70;99.90;;;;;;10055556;28;20038;-73
2023/07/27 22:00:50;;;;;;;5.32;2.80;;;23.70;99.90;;;;;;10055475;28;20029;-72
2023/07/27 22:05:43;;;;;;;5.13;3.38;;;23.70;99.90;;;;;;10057152;28;20120;-72
2023/07/27 22:10:34;;;;;;;7.32;3.83;;;23.60;99.90;;;;;;10055126;28;20032;-72
2023/07/27 22:15:25;;;;;;;5.00;2.80;;;23.60;99.90;;;;;;10057301;28;20498;-72
2023/07/27 22:20:15;;;;;;;4.43;2.42;;;23.60;99.90;;;;;;10056210;28;20495;-72
2023/07/27 22:25:06;;;;;;;6.82;3.00;;;23.60;99.90;;;;;;10060690;28;20037;-72
2023/07/27 22:29:57;;;;;;;6.70;3.10;;;23.50;99.90;;;;;;10058680;28;20055;-72
2023/07/27 22:34:47;;;;;;;4.32;2.80;;;23.50;99.90;;;;;;10056685;28;20405;-72
2023/07/27 22:39:38;;;;;;;4.65;2.78;;;23.50;99.90;;;;;;10056192;28;20052;-73
2023/07/27 22:44:29;;;;;;;6.45;3.35;;;23.50;99.90;;;;;;10058172;28;20037;-72
2023/07/27 22:49:19;;;;;;;3.25;2.03;;;23.40;99.90;;;;;;10064223;28;20029;-73
2023/07/27 22:54:10;;;;;;;2.92;2.33;;;23.40;99.90;;;;;;10065095;28;20049;-72
2023/07/27 22:59:00;;;;;;;5.28;3.33;;;23.30;99.90;;;;;;10073750;28;20517;-72
2023/07/27 23:03:51;;;;;;;3.72;1.75;;;23.30;99.90;;;;;;10064143;28;20138;-72
2023/07/27 23:08:41;;;;;;;3.13;2.17;;;23.30;99.90;;;;;;10068571;28;20017;-73
2023/07/27 23:13:32;;;;;;;4.03;2.22;;;23.30;99.90;;;;;;10059342;28;20456;-72
2023/07/27 23:18:23;;;;;;;5.57;2.42;;;23.30;99.90;;;;;;10063695;28;20100;-72
2023/07/27 23:23:14;;;;;;;3.95;1.90;;;23.20;99.90;;;;;;10063610;28;20120;-72
2023/07/27 23:28:04;;;;;;;4.72;1.63;;;23.20;99.90;;;;;;10063232;28;20021;-72
2023/07/27 23:32:55;;;;;;;4.57;1.73;;;23.20;99.90;;;;;;10062126;28;20056;-72
2023/07/27 23:37:46;;;;;;;3.15;2.05;;;23.10;99.90;;;;;;10065298;28;20448;-73
2023/07/27 23:42:37;;;;;;;1.52;1.38;;;23.00;99.90;;;;;;10061347;28;20070;-73
2023/07/27 23:47:27;;;;;;;3.05;1.85;;;23.10;99.90;;;;;;10067836;28;20499;-73
2023/07/27 23:52:18;;;;;;;4.47;2.20;;;23.00;99.90;;;;;;10062486;28;20323;-73
2023/07/27 23:57:09;;;;;;;2.15;1.63;;;23.10;99.90;;;;;;10060832;28;20047;-72
